Time,TemperatureF,DewpointF,PressureIn,WindDirection,WindDirectionDegrees,WindSpeedMPH,WindSpeedGustMPH,Humidity,HourlyPrecipIn,Conditions,Clouds,dailyrainin,SoftwareType,DateUTC
2013-09-07 00:01:00,77.0,75.5,30.00,NW,323,0.0,1.0,95,0.00,,---,0.00,VWS V14.01,2013-09-07 04:01:00,
2013-09-07 00:02:00,77.0,75.5,30.00,NW,325,0.0,1.0,95,0.00,,---,0.00,VWS V14.01,2013-09-07 04:02:00,
2013-09-07 00:04:00,77.0,75.5,30.00,NW,323,0.0,1.0,95,0.00,,---,0.00,VWS V14.01,2013-09-07 04:04:00,
2013-09-07 00:09:00,77.2,75.7,30.00,NW,311,0.0,1.0,95,0.00,,---,0.00,VWS V14.01,2013-09-07 04:09:00,
2013-09-07 00:15:00,77.2,75.7,30.00,NW,316,1.0,1.0,95,0.00,,---,0.00,VWS V14.01,2013-09-07 04:15:00,
2013-09-07 00:20:00,77.2,75.7,30.00,NW,311,0.0,1.0,95,0.00,,---,0.00,VWS V14.01,2013-09-07 04:20:00,
2013-09-07 00:25:00,77.1,75.6,30.00,NW,312,0.0,1.0,95,0.00,,---,0.00,VWS V14.01,2013-09-07 04:25:00,
2013-09-07 00:30:00,77.0,75.1,29.99,NW,312,0.0,0.0,94,0.00,,---,0.00,VWS V14.01,2013-09-07 04:30:00,
2013-09-07 00:35:00,76.8,74.9,29.99,NW,311,0.0,0.0,94,0.00,,---,0.00,VWS V14.01,2013-09-07 04:35:00,
2013-09-07 00:40:00,76.7,75.2,29.99,East,91,0.0,1.0,95,0.00,,---,0.00,VWS V14.01,2013-09-07 04:40:00,
2013-09-07 00:45:00,76.6,75.1,29.99,NW,309,0.0,1.0,95,0.00,,---,0.00,VWS V14.01,2013-09-07 04:45:00,
2013-09-07 00:50:00,76.6,75.1,29.98,NNE,16,0.0,1.0,95,0.00,,---,0.00,VWS V14.01,2013-09-07 04:50:00,
2013-09-07 00:55:00,76.6,75.1,29.98,NNE,13,0.0,1.0,95,0.00,,---,0.00,VWS V14.01,2013-09-07 04:55:00,
2013-09-07 01:00:00,76.6,75.1,29.98,NNE,13,0.0,0.0,95,0.00,,---,0.00,VWS V14.01,2013-09-07 05:00:00,
2013-09-07 01:05:00,76.6,75.1,29.98,NE,46,0.0,3.0,95,0.00,,---,0.00,VWS V14.01,2013-09-07 05:05:00,
2013-09-07 01:11:00,76.5,75.0,29.98,NE,45,0.0,3.0,95,0.00,,---,0.00,VWS V14.01,2013-09-07 05:11:00,
2013-09-07 01:16:00,76.5,75.0,29.98,NW,314,1.0,3.0,95,0.00,,---,0.00,VWS V14.01,2013-09-07 05:16:00,
2013-09-07 01:21:00,76.5,75.0,29.98,NW,318,0.0,3.0,95,0.00,,---,0.00,VWS V14.01,2013-09-07 05:21:00,
2013-09-07 01:26:00,76.4,74.9,29.98,NW,321,0.0,3.0,95,0.00,,---,0.00,VWS V14.01,2013-09-07 05:26:00,
2013-09-07 01:31:00,76.4,74.9,29.98,NW,321,0.0,0.0,95,0.00,,---,0.00,VWS V14.01,2013-09-07 05:31:00,
2013-09-07 01:36:00,76.2,74.7,29.98,NNW,329,0.0,1.0,95,0.00,,---,0.00,VWS V14.01,2013-09-07 05:36:00,
2013-09-07 01:41:00,76.2,74.7,29.98,NNW,329,0.0,1.0,95,0.00,,---,0.00,VWS V14.01,2013-09-07 05:41:00,
2013-09-07 01:46:00,76.1,74.6,29.98,NNW,330,0.0,1.0,95,0.00,,---,0.00,VWS V14.01,2013-09-07 05:46:00,
2013-09-07 01:51:00,75.9,74.4,29.98,NNW,330,0.0,1.0,95,0.00,,---,0.00,VWS V14.01,2013-09-07 05:51:00,
2013-09-07 01:56:00,75.9,74.4,29.98,NNW,342,0.0,1.0,95,0.00,,---,0.00,VWS V14.01,2013-09-07 05:56:00,
2013-09-07 02:01:00,75.8,74.3,29.99,NNW,342,0.0,0.0,95,0.00,,---,0.00,VWS V14.01,2013-09-07 06:01:00,
2013-09-07 02:06:00,75.8,74.6,29.99,NNW,342,0.0,1.0,96,0.00,,---,0.00,VWS V14.01,2013-09-07 06:06:00,
2013-09-07 02:12:00,75.8,74.6,29.99,NNW,340,0.0,1.0,96,0.00,,---,0.00,VWS V14.01,2013-09-07 06:12:00,
2013-09-07 02:17:00,75.8,74.6,29.98,NW,307,0.0,1.0,96,0.00,,---,0.00,VWS V14.01,2013-09-07 06:17:00,
2013-09-07 02:22:00,75.7,74.2,29.99,NW,308,0.0,1.0,95,0.00,,---,0.00,VWS V14.01,2013-09-07 06:22:00,
2013-09-07 02:27:00,75.6,74.1,29.98,NW,307,0.0,1.0,95,0.00,,---,0.00,VWS V14.01,2013-09-07 06:27:00,
2013-09-07 02:32:00,75.5,74.0,29.98,NNE,30,0.0,0.0,95,0.00,,---,0.00,VWS V14.01,2013-09-07 06:32:00,
2013-09-07 02:37:00,75.3,73.8,29.98,NNE,32,0.0,0.0,95,0.00,,---,0.00,VWS V14.01,2013-09-07 06:37:00,
2013-09-07 02:42:00,75.4,74.2,29.98,NNE,30,0.0,1.0,96,0.00,,---,0.00,VWS V14.01,2013-09-07 06:42:00,
2013-09-07 02:47:00,75.4,73.9,29.98,NNE,30,0.0,1.0,95,0.00,,---,0.00,VWS V14.01,2013-09-07 06:47:00,
2013-09-07 02:52:00,75.4,74.2,29.98,NNE,29,0.0,1.0,96,0.00,,---,0.00,VWS V14.01,2013-09-07 06:52:00,
2013-09-07 02:58:00,75.5,74.3,29.98,NNE,29,0.0,1.0,96,0.00,,---,0.00,VWS V14.01,2013-09-07 06:58:00,
2013-09-07 03:03:00,75.5,74.3,29.98,NNE,30,0.0,0.0,96,0.00,,---,0.00,VWS V14.01,2013-09-07 07:03:00,
2013-09-07 03:08:00,75.6,74.4,29.97,NNE,29,0.0,1.0,96,0.00,,---,0.00,VWS V14.01,2013-09-07 07:08:00,
2013-09-07 03:13:00,75.6,74.4,29.97,NNW,330,1.0,1.0,96,0.00,,---,0.00,VWS V14.01,2013-09-07 07:13:00,
2013-09-07 03:18:00,75.5,74.3,29.97,NW,319,0.0,2.0,96,0.00,,---,0.00,VWS V14.01,2013-09-07 07:18:00,
2013-09-07 03:23:00,75.5,74.3,29.97,NW,318,0.0,2.0,96,0.00,,---,0.00,VWS V14.01,2013-09-07 07:23:00,
2013-09-07 03:28:00,75.5,74.3,29.97,NW,318,0.0,2.0,96,0.00,,---,0.00,VWS V14.01,2013-09-07 07:28:00,
2013-09-07 03:33:00,75.4,74.2,29.98,NW,318,0.0,1.0,96,0.00,,---,0.00,VWS V14.01,2013-09-07 07:33:00,
2013-09-07 03:38:00,75.5,74.3,29.98,NW,311,0.0,1.0,96,0.00,,---,0.00,VWS V14.01,2013-09-07 07:38:00,
2013-09-07 03:43:00,75.4,74.2,29.97,NW,307,0.0,1.0,96,0.00,,---,0.00,VWS V14.01,2013-09-07 07:43:00,
2013-09-07 03:49:00,75.5,74.3,29.98,NW,307,0.0,1.0,96,0.00,,---,0.00,VWS V14.01,2013-09-07 07:49:00,
2013-09-07 03:54:00,75.4,74.2,29.97,NW,307,0.0,1.0,96,0.00,,---,0.00,VWS V14.01,2013-09-07 07:54:00,
2013-09-07 03:59:00,75.3,74.1,29.98,NW,305,0.0,1.0,96,0.00,,---,0.00,VWS V14.01,2013-09-07 07:59:00,
2013-09-07 04:04:00,75.3,74.1,29.97,WNW,302,0.0,1.0,96,0.00,,---,0.00,VWS V14.01,2013-09-07 08:04:00,
2013-09-07 04:09:00,75.3,74.1,29.97,NW,307,0.0,1.0,96,0.00,,---,0.00,VWS V14.01,2013-09-07 08:09:00,
2013-09-07 04:14:00,75.2,74.0,29.97,NW,309,0.0,2.0,96,0.00,,---,0.00,VWS V14.01,2013-09-07 08:14:00,
2013-09-07 04:19:00,75.1,73.9,29.97,NNW,332,0.0,3.0,96,0.00,,---,0.00,VWS V14.01,2013-09-07 08:19:00,
2013-09-07 04:24:00,75.0,73.8,29.96,NW,326,1.0,3.0,96,0.00,,---,0.00,VWS V14.01,2013-09-07 08:24:00,
2013-09-07 04:29:00,75.0,73.8,29.96,NW,326,0.0,3.0,96,0.00,,---,0.00,VWS V14.01,2013-09-07 08:29:00,
2013-09-07 04:34:00,74.9,73.7,29.96,NNW,328,0.0,2.0,96,0.00,,---,0.00,VWS V14.01,2013-09-07 08:34:00,
2013-09-07 04:39:00,74.9,73.7,29.96,NNW,339,1.0,2.0,96,0.00,,---,0.00,VWS V14.01,2013-09-07 08:39:00,
2013-09-07 04:44:00,74.8,73.6,29.96,NNE,13,0.0,2.0,96,0.00,,---,0.00,VWS V14.01,2013-09-07 08:44:00,
2013-09-07 04:50:00,74.7,73.2,29.96,NW,323,0.0,2.0,95,0.00,,---,0.00,VWS V14.01,2013-09-07 08:50:00,
2013-09-07 04:55:00,74.7,73.5,29.96,NNE,30,0.0,2.0,96,0.00,,---,0.00,VWS V14.01,2013-09-07 08:55:00,
2013-09-07 05:00:00,74.6,73.4,29.96,NNE,30,0.0,0.0,96,0.00,,---,0.00,VWS V14.01,2013-09-07 09:00:00,
2013-09-07 05:05:00,74.6,73.4,29.96,NNE,23,0.0,1.0,96,0.00,,---,0.00,VWS V14.01,2013-09-07 09:05:00,
2013-09-07 05:10:00,74.6,73.4,29.96,NNE,23,0.0,1.0,96,0.00,,---,0.00,VWS V14.01,2013-09-07 09:10:00,
2013-09-07 05:15:00,74.5,73.3,29.96,NNE,23,0.0,1.0,96,0.00,,---,0.00,VWS V14.01,2013-09-07 09:15:00,
2013-09-07 05:20:00,74.6,73.4,29.96,NNW,339,0.0,1.0,96,0.00,,---,0.00,VWS V14.01,2013-09-07 09:20:00,
2013-09-07 05:25:00,74.6,73.4,29.96,NNW,338,0.0,1.0,96,0.00,,---,0.00,VWS V14.01,2013-09-07 09:25:00,
2013-09-07 05:30:00,74.5,73.3,29.96,NW,325,0.0,0.0,96,0.00,,---,0.00,VWS V14.01,2013-09-07 09:30:00,
2013-09-07 05:35:00,74.7,73.5,29.96,NW,305,0.0,1.0,96,0.00,,---,0.00,VWS V14.01,2013-09-07 09:35:00,
2013-09-07 05:40:00,74.8,73.6,29.95,NW,305,1.0,1.0,96,0.00,,---,0.00,VWS V14.01,2013-09-07 09:40:00,
2013-09-07 05:45:00,74.7,73.2,29.95,NNW,347,0.0,1.0,95,0.00,,---,0.00,VWS V14.01,2013-09-07 09:45:00,
2013-09-07 05:50:00,74.7,73.5,29.95,NNW,347,0.0,1.0,96,0.00,,---,0.00,VWS V14.01,2013-09-07 09:50:00,
2013-09-07 05:55:00,74.6,73.1,29.95,North,4,0.0,1.0,95,0.00,,---,0.00,VWS V14.01,2013-09-07 09:55:00,
2013-09-07 06:00:00,74.6,73.4,29.95,North,4,0.0,1.0,96,0.00,,---,0.00,VWS V14.01,2013-09-07 10:00:00,
2013-09-07 06:05:00,74.6,73.4,29.95,North,4,0.0,1.0,96,0.00,,---,0.00,VWS V14.01,2013-09-07 10:05:00,
2013-09-07 06:10:00,74.5,73.3,29.95,North,4,0.0,1.0,96,0.00,,---,0.00,VWS V14.01,2013-09-07 10:10:00,
2013-09-07 06:15:00,74.6,73.4,29.95,North,360,0.0,1.0,96,0.00,,---,0.00,VWS V14.01,2013-09-07 10:15:00,
2013-09-07 06:21:00,74.7,73.5,29.95,North,359,0.0,1.0,96,0.00,,---,0.00,VWS V14.01,2013-09-07 10:21:00,
2013-09-07 06:26:00,74.7,73.5,29.96,North,360,0.0,1.0,96,0.00,,---,0.00,VWS V14.01,2013-09-07 10:26:00,
2013-09-07 06:31:00,74.7,73.5,29.96,North,359,0.0,0.0,96,0.00,,---,0.00,VWS V14.01,2013-09-07 10:31:00,
2013-09-07 06:36:00,74.7,73.5,29.96,North,360,0.0,0.0,96,0.00,,---,0.00,VWS V14.01,2013-09-07 10:36:00,
2013-09-07 06:41:00,74.8,73.6,29.96,North,360,0.0,1.0,96,0.00,,---,0.00,VWS V14.01,2013-09-07 10:41:00,
2013-09-07 06:46:00,74.9,73.7,29.96,North,360,0.0,1.0,96,0.00,,---,0.00,VWS V14.01,2013-09-07 10:46:00,
2013-09-07 06:51:00,74.8,73.6,29.96,North,357,0.0,1.0,96,0.00,,---,0.00,VWS V14.01,2013-09-07 10:51:00,
2013-09-07 06:56:00,74.9,73.7,29.96,NW,323,0.0,1.0,96,0.00,,---,0.00,VWS V14.01,2013-09-07 10:56:00,
2013-09-07 07:01:00,74.9,73.7,29.96,NW,323,0.0,0.0,96,0.00,,---,0.00,VWS V14.01,2013-09-07 11:01:00,
2013-09-07 07:06:00,74.9,73.7,29.97,NW,323,0.0,1.0,96,0.00,,---,0.00,VWS V14.01,2013-09-07 11:06:00,
2013-09-07 07:11:00,75.0,73.8,29.97,NW,323,0.0,1.0,96,0.00,,---,0.00,VWS V14.01,2013-09-07 11:11:00,
2013-09-07 07:16:00,75.0,73.8,29.97,NW,323,0.0,1.0,96,0.00,,---,0.00,VWS V14.01,2013-09-07 11:16:00,
2013-09-07 07:21:00,75.0,73.8,29.97,NW,323,0.0,1.0,96,0.00,,---,0.00,VWS V14.01,2013-09-07 11:21:00,
2013-09-07 07:26:00,75.0,73.8,29.97,NW,323,0.0,1.0,96,0.00,,---,0.00,VWS V14.01,2013-09-07 11:26:00,
2013-09-07 07:31:00,75.1,73.9,29.97,NW,323,0.0,0.0,96,0.00,,---,0.00,VWS V14.01,2013-09-07 11:31:00,
2013-09-07 07:36:00,75.2,74.0,29.97,NW,325,0.0,0.0,96,0.00,,---,0.00,VWS V14.01,2013-09-07 11:36:00,
2013-09-07 07:41:00,75.4,74.2,29.97,NW,307,0.0,1.0,96,0.00,,---,0.00,VWS V14.01,2013-09-07 11:41:00,
2013-09-07 07:47:00,75.3,74.1,29.97,NW,305,0.0,1.0,96,0.00,,---,0.00,VWS V14.01,2013-09-07 11:47:00,
2013-09-07 07:52:00,75.6,74.4,29.97,NW,311,0.0,1.0,96,0.00,,---,0.00,VWS V14.01,2013-09-07 11:52:00,
2013-09-07 07:57:00,75.6,74.1,29.97,NNW,330,0.0,2.0,95,0.00,,---,0.00,VWS V14.01,2013-09-07 11:57:00,
2013-09-07 08:02:00,75.5,74.0,29.97,NNW,330,1.0,1.0,95,0.00,,---,0.00,VWS V14.01,2013-09-07 12:02:00,
2013-09-07 08:07:00,75.6,74.1,29.97,NW,323,1.0,2.0,95,0.00,,---,0.00,VWS V14.01,2013-09-07 12:07:00,
2013-09-07 08:12:00,75.6,74.1,29.97,NW,325,0.0,2.0,95,0.00,,---,0.00,VWS V14.01,2013-09-07 12:12:00,
2013-09-07 08:17:00,75.8,74.6,29.97,NNW,342,0.0,2.0,96,0.00,,---,0.00,VWS V14.01,2013-09-07 12:17:00,
2013-09-07 08:22:00,75.9,74.4,29.97,NW,318,0.0,2.0,95,0.00,,---,0.00,VWS V14.01,2013-09-07 12:22:00,
2013-09-07 08:27:00,76.0,74.8,29.97,NW,318,0.0,2.0,96,0.00,,---,0.00,VWS V14.01,2013-09-07 12:27:00,
2013-09-07 08:32:00,76.2,75.0,29.98,NW,318,0.0,0.0,96,0.00,,---,0.00,VWS V14.01,2013-09-07 12:32:00,
2013-09-07 08:37:00,76.4,75.2,29.97,NW,316,0.0,0.0,96,0.00,,---,0.00,VWS V14.01,2013-09-07 12:37:00,
2013-09-07 08:42:00,76.6,75.1,29.97,NW,318,0.0,1.0,95,0.00,,---,0.00,VWS V14.01,2013-09-07 12:42:00,
2013-09-07 08:47:00,76.8,75.3,29.98,NW,321,0.0,1.0,95,0.00,,---,0.00,VWS V14.01,2013-09-07 12:47:00,
2013-09-07 08:52:00,76.8,75.3,29.98,NW,325,0.0,1.0,95,0.00,,---,0.00,VWS V14.01,2013-09-07 12:52:00,
2013-09-07 08:57:00,77.0,75.5,29.98,NNW,332,0.0,1.0,95,0.00,,---,0.00,VWS V14.01,2013-09-07 12:57:00,
2013-09-07 09:02:00,77.0,75.1,29.98,NNW,327,0.0,2.0,94,0.00,,---,0.00,VWS V14.01,2013-09-07 13:02:00,
2013-09-07 09:07:00,77.2,75.3,29.98,NNW,336,1.0,2.0,94,0.00,,---,0.00,VWS V14.01,2013-09-07 13:07:00,
2013-09-07 09:13:00,77.4,75.5,29.98,NE,55,1.0,2.0,94,0.00,,---,0.00,VWS V14.01,2013-09-07 13:13:00,
2013-09-07 09:18:00,77.6,75.7,29.98,North,359,1.0,2.0,94,0.00,,---,0.00,VWS V14.01,2013-09-07 13:18:00,
2013-09-07 09:23:00,77.8,75.9,29.98,NNW,335,0.0,2.0,94,0.00,,---,0.00,VWS V14.01,2013-09-07 13:23:00,
2013-09-07 09:28:00,78.2,76.3,29.98,North,11,1.0,2.0,94,0.00,,---,0.00,VWS V14.01,2013-09-07 13:28:00,
2013-09-07 09:33:00,78.5,76.3,29.98,ENE,75,0.0,4.0,93,0.00,,---,0.00,VWS V14.01,2013-09-07 13:33:00,
2013-09-07 09:38:00,78.8,76.6,29.98,NNW,336,1.0,4.0,93,0.00,,---,0.00,VWS V14.01,2013-09-07 13:38:00,
2013-09-07 09:43:00,78.9,76.7,29.99,NNW,339,0.0,4.0,93,0.00,,---,0.00,VWS V14.01,2013-09-07 13:43:00,
2013-09-07 09:48:00,79.1,76.6,29.99,NW,321,0.0,4.0,92,0.00,,---,0.00,VWS V14.01,2013-09-07 13:48:00,
2013-09-07 09:53:00,79.5,77.0,29.99,NNW,344,1.0,4.0,92,0.00,,---,0.00,VWS V14.01,2013-09-07 13:53:00,
2013-09-07 09:58:00,79.9,77.0,29.99,NW,312,1.0,4.0,91,0.00,,---,0.00,VWS V14.01,2013-09-07 13:58:00,
2013-09-07 10:03:00,79.8,76.9,29.99,NNW,346,0.0,2.0,91,0.00,,---,0.00,VWS V14.01,2013-09-07 14:03:00,
2013-09-07 10:08:00,79.8,76.9,29.99,NNE,13,2.0,2.0,91,0.00,,---,0.00,VWS V14.01,2013-09-07 14:08:00,
2013-09-07 10:13:00,79.7,76.8,29.99,NW,320,0.0,2.0,91,0.00,,---,0.00,VWS V14.01,2013-09-07 14:13:00,
2013-09-07 10:18:00,79.7,76.5,29.99,NNE,29,1.0,2.0,90,0.00,,---,0.00,VWS V14.01,2013-09-07 14:18:00,
2013-09-07 10:23:00,80.2,77.7,30.00,NW,319,1.0,2.0,92,0.00,,---,0.00,VWS V14.01,2013-09-07 14:23:00,
2013-09-07 10:29:00,80.7,77.2,30.00,NW,316,1.0,3.0,89,0.00,,---,0.00,VWS V14.01,2013-09-07 14:29:00,
2013-09-07 10:34:00,81.1,77.2,30.00,WNW,300,1.0,2.0,88,0.00,,---,0.00,VWS V14.01,2013-09-07 14:34:00,
2013-09-07 10:39:00,81.6,77.4,30.00,NNE,26,1.0,4.0,87,0.00,,---,0.00,VWS V14.01,2013-09-07 14:39:00,
2013-09-07 10:44:00,82.5,78.2,30.00,WNW,291,0.0,4.0,87,0.00,,---,0.00,VWS V14.01,2013-09-07 14:44:00,
2013-09-07 10:49:00,83.1,77.8,30.00,North,350,1.0,4.0,84,0.00,,---,0.00,VWS V14.01,2013-09-07 14:49:00,
2013-09-07 10:54:00,83.4,77.3,30.00,North,349,1.0,4.0,82,0.00,,---,0.00,VWS V14.01,2013-09-07 14:54:00,
2013-09-07 10:59:00,83.6,77.5,30.00,NE,44,1.0,5.0,82,0.00,,---,0.00,VWS V14.01,2013-09-07 14:59:00,
2013-09-07 11:04:00,84.4,78.3,30.00,NE,43,2.0,3.0,82,0.00,,---,0.00,VWS V14.01,2013-09-07 15:04:00,
2013-09-07 11:09:00,84.1,77.3,30.01,NE,44,1.0,9.0,80,0.00,,---,0.00,VWS V14.01,2013-09-07 15:09:00,
2013-09-07 11:14:00,84.5,77.3,30.01,ENE,72,1.0,9.0,79,0.00,,---,0.00,VWS V14.01,2013-09-07 15:14:00,
2013-09-07 11:19:00,85.1,77.1,30.01,WNW,298,1.0,9.0,77,0.00,,---,0.00,VWS V14.01,2013-09-07 15:19:00,
2013-09-07 11:24:00,86.0,76.8,30.00,ESE,105,1.0,9.0,74,0.00,,---,0.00,VWS V14.01,2013-09-07 15:24:00,
2013-09-07 11:29:00,85.8,75.7,30.01,ESE,109,3.0,9.0,72,0.00,,---,0.00,VWS V14.01,2013-09-07 15:29:00,
2013-09-07 11:34:00,86.0,76.3,30.00,NE,43,5.0,6.0,73,0.00,,---,0.00,VWS V14.01,2013-09-07 15:34:00,
2013-09-07 11:39:00,85.9,76.7,30.00,NE,53,2.0,7.0,74,0.00,,---,0.00,VWS V14.01,2013-09-07 15:39:00,
2013-09-07 11:44:00,86.1,76.4,30.00,North,350,2.0,7.0,73,0.00,,---,0.00,VWS V14.01,2013-09-07 15:44:00,
2013-09-07 11:50:00,85.4,75.3,30.00,NNE,26,1.0,7.0,72,0.00,,---,0.00,VWS V14.01,2013-09-07 15:50:00,
2013-09-07 11:55:00,84.8,75.6,30.00,ENE,71,0.0,7.0,74,0.00,,---,0.00,VWS V14.01,2013-09-07 15:55:00,
2013-09-07 12:00:00,85.2,75.6,30.00,NE,50,1.0,7.0,73,0.00,,---,0.00,VWS V14.01,2013-09-07 16:00:00,
2013-09-07 12:05:00,85.4,75.8,29.99,South,169,0.0,2.0,73,0.00,,---,0.00,VWS V14.01,2013-09-07 16:05:00,
2013-09-07 12:10:00,86.0,75.9,29.99,NE,48,2.0,5.0,72,0.00,,---,0.00,VWS V14.01,2013-09-07 16:10:00,
2013-09-07 12:15:00,86.1,76.4,29.99,ESE,108,1.0,6.0,73,0.00,,---,0.00,VWS V14.01,2013-09-07 16:15:00,
2013-09-07 12:20:00,86.3,75.8,29.99,SE,134,2.0,8.0,71,0.00,,---,0.00,VWS V14.01,2013-09-07 16:20:00,
2013-09-07 12:25:00,86.6,75.7,29.99,ENE,71,2.0,10.0,70,0.00,,---,0.00,VWS V14.01,2013-09-07 16:25:00,
2013-09-07 12:30:00,87.1,75.7,29.99,WNW,293,0.0,2.0,69,0.00,,---,0.00,VWS V14.01,2013-09-07 16:30:00,
2013-09-07 12:35:00,87.5,74.8,29.99,NE,53,3.0,6.0,66,0.00,,---,0.00,VWS V14.01,2013-09-07 16:35:00,
2013-09-07 12:40:00,87.4,75.1,29.99,ENE,57,7.0,8.0,67,0.00,,---,0.00,VWS V14.01,2013-09-07 16:40:00,
2013-09-07 12:45:00,87.4,75.6,29.99,East,89,2.0,10.0,68,0.00,,---,0.00,VWS V14.01,2013-09-07 16:45:00,
2013-09-07 12:51:00,86.6,74.3,29.99,NNE,26,3.0,10.0,67,0.00,,---,0.00,VWS V14.01,2013-09-07 16:51:00,
2013-09-07 12:56:00,86.0,75.1,29.99,NE,47,3.0,10.0,70,0.00,,---,0.00,VWS V14.01,2013-09-07 16:56:00,
2013-09-07 13:01:00,85.6,74.7,29.99,NW,325,1.0,2.0,70,0.00,,---,0.00,VWS V14.01,2013-09-07 17:01:00,
2013-09-07 13:06:00,85.4,74.9,29.98,NE,50,2.0,7.0,71,0.00,,---,0.00,VWS V14.01,2013-09-07 17:06:00,
2013-09-07 13:11:00,85.4,74.9,29.98,ENE,66,1.0,7.0,71,0.00,,---,0.00,VWS V14.01,2013-09-07 17:11:00,
2013-09-07 13:16:00,85.9,75.0,29.98,East,79,2.0,7.0,70,0.00,,---,0.00,VWS V14.01,2013-09-07 17:16:00,
2013-09-07 13:21:00,86.5,74.7,29.98,WSW,245,1.0,7.0,68,0.00,,---,0.00,VWS V14.01,2013-09-07 17:21:00,
2013-09-07 13:26:00,86.8,75.0,29.98,North,9,3.0,7.0,68,0.00,,---,0.00,VWS V14.01,2013-09-07 17:26:00,
2013-09-07 13:31:00,86.8,74.5,29.98,ENE,61,1.0,6.0,67,0.00,,---,0.00,VWS V14.01,2013-09-07 17:31:00,
2013-09-07 13:36:00,86.2,74.4,29.98,NE,41,3.0,8.0,68,0.00,,---,0.00,VWS V14.01,2013-09-07 17:36:00,
2013-09-07 13:41:00,85.7,73.9,29.98,ENE,72,1.0,8.0,68,0.00,,---,0.00,VWS V14.01,2013-09-07 17:41:00,
2013-09-07 13:46:00,85.7,74.8,29.97,NE,53,2.0,8.0,70,0.00,,---,0.00,VWS V14.01,2013-09-07 17:46:00,
2013-09-07 13:52:00,85.6,75.1,29.98,NE,45,2.0,8.0,71,0.00,,---,0.00,VWS V14.01,2013-09-07 17:52:00,
2013-09-07 13:57:00,85.6,75.1,29.98,East,89,2.0,8.0,71,0.00,,---,0.00,VWS V14.01,2013-09-07 17:57:00,
2013-09-07 14:02:00,85.7,74.8,29.97,NE,51,5.0,5.0,70,0.00,,---,0.00,VWS V14.01,2013-09-07 18:02:00,
2013-09-07 14:07:00,85.6,74.7,29.97,ENE,61,4.0,6.0,70,0.00,,---,0.00,VWS V14.01,2013-09-07 18:07:00,
2013-09-07 14:12:00,85.3,74.8,29.97,NE,41,3.0,6.0,71,0.00,,---,0.00,VWS V14.01,2013-09-07 18:12:00,
2013-09-07 14:17:00,84.9,74.4,29.97,NE,44,1.0,6.0,71,0.00,,---,0.00,VWS V14.01,2013-09-07 18:17:00,
2013-09-07 14:22:00,84.7,74.7,29.96,East,91,0.0,6.0,72,0.00,,---,0.00,VWS V14.01,2013-09-07 18:22:00,
2013-09-07 14:27:00,84.7,74.7,29.96,ESE,115,0.0,6.0,72,0.00,,---,0.00,VWS V14.01,2013-09-07 18:27:00,
2013-09-07 14:32:00,84.7,75.1,29.96,ESE,115,0.0,6.0,73,0.00,,---,0.00,VWS V14.01,2013-09-07 18:32:00,
2013-09-07 14:37:00,84.6,75.0,29.96,NE,54,3.0,8.0,73,0.00,,---,0.00,VWS V14.01,2013-09-07 18:37:00,
2013-09-07 14:42:00,84.7,75.1,29.95,NE,51,0.0,8.0,73,0.00,,---,0.00,VWS V14.01,2013-09-07 18:42:00,
2013-09-07 14:47:00,85.7,75.6,29.95,East,99,2.0,8.0,72,0.00,,---,0.00,VWS V14.01,2013-09-07 18:47:00,
2013-09-07 14:53:00,85.4,74.9,29.95,North,357,3.0,8.0,71,0.00,,---,0.00,VWS V14.01,2013-09-07 18:53:00,
2013-09-07 14:58:00,85.2,74.3,29.95,NE,40,4.0,8.0,70,0.00,,---,0.00,VWS V14.01,2013-09-07 18:58:00,
2013-09-07 15:03:00,85.1,74.6,29.94,NE,36,0.0,4.0,71,0.00,,---,0.00,VWS V14.01,2013-09-07 19:03:00,
2013-09-07 15:09:00,85.0,74.6,29.94,ENE,76,1.0,5.0,71,0.00,,---,0.00,VWS V14.01,2013-09-07 19:09:00,
2013-09-07 15:14:00,84.8,74.4,29.94,East,101,0.0,6.0,71,0.00,,---,0.00,VWS V14.01,2013-09-07 19:14:00,
2013-09-07 15:19:00,84.7,74.3,29.94,ENE,63,1.0,6.0,71,0.00,,---,0.00,VWS V14.01,2013-09-07 19:19:00,
2013-09-07 15:24:00,84.4,74.4,29.95,NE,40,3.0,8.0,72,0.00,,---,0.00,VWS V14.01,2013-09-07 19:24:00,
2013-09-07 15:29:00,84.1,74.5,29.94,ENE,58,5.0,8.0,73,0.00,,---,0.00,VWS V14.01,2013-09-07 19:29:00,
2013-09-07 15:34:00,83.9,74.7,29.95,ENE,62,1.0,7.0,74,0.00,,---,0.00,VWS V14.01,2013-09-07 19:34:00,
2013-09-07 15:40:00,83.9,74.7,29.96,NNE,32,0.0,7.0,74,0.00,,---,0.00,VWS V14.01,2013-09-07 19:40:00,
2013-09-07 15:45:00,83.8,75.8,29.95,North,8,1.0,7.0,77,0.00,,---,0.00,VWS V14.01,2013-09-07 19:45:00,
2013-09-07 15:50:00,83.2,75.6,29.95,NE,47,2.0,7.0,78,0.01,,---,0.01,VWS V14.01,2013-09-07 19:50:00,
2013-09-07 15:55:00,82.7,75.5,29.95,NE,44,0.0,7.0,79,0.01,,---,0.01,VWS V14.01,2013-09-07 19:55:00,
2013-09-07 16:00:00,82.5,76.4,29.95,NNE,16,0.0,0.0,82,0.01,,---,0.01,VWS V14.01,2013-09-07 20:00:00,
2013-09-07 16:05:00,82.1,76.4,29.94,NW,314,0.0,1.0,83,0.01,,---,0.01,VWS V14.01,2013-09-07 20:05:00,
2013-09-07 16:10:00,81.8,76.5,29.94,NW,311,0.0,1.0,84,0.01,,---,0.01,VWS V14.01,2013-09-07 20:10:00,
2013-09-07 16:15:00,81.5,76.6,29.94,WNW,301,0.0,1.0,85,0.01,,---,0.01,VWS V14.01,2013-09-07 20:15:00,
2013-09-07 16:20:00,81.4,76.1,29.94,NE,50,1.0,3.0,84,0.01,,---,0.01,VWS V14.01,2013-09-07 20:20:00,
2013-09-07 16:25:00,81.6,75.6,29.93,NNE,33,1.0,5.0,82,0.01,,---,0.01,VWS V14.01,2013-09-07 20:25:00,
2013-09-07 16:30:00,82.1,75.3,29.93,NNE,12,2.0,4.0,80,0.01,,---,0.01,VWS V14.01,2013-09-07 20:30:00,
2013-09-07 16:36:00,82.4,75.2,29.93,SE,129,1.0,7.0,79,0.01,,---,0.01,VWS V14.01,2013-09-07 20:36:00,
2013-09-07 16:41:00,82.5,74.6,29.93,NNE,29,1.0,8.0,77,0.01,,---,0.01,VWS V14.01,2013-09-07 20:41:00,
2013-09-07 16:46:00,82.7,75.2,29.93,ESE,122,1.0,8.0,78,0.01,,---,0.01,VWS V14.01,2013-09-07 20:46:00,
2013-09-07 16:51:00,82.8,74.9,29.93,NE,54,5.0,8.0,77,0.01,,---,0.01,VWS V14.01,2013-09-07 20:51:00,
2013-09-07 16:56:00,83.1,75.5,29.92,NE,40,2.0,8.0,78,0.01,,---,0.01,VWS V14.01,2013-09-07 20:56:00,
2013-09-07 17:01:00,83.6,75.6,29.93,NE,41,3.0,3.0,77,0.00,,---,0.01,VWS V14.01,2013-09-07 21:01:00,
2013-09-07 17:06:00,84.2,75.0,29.93,NNE,22,3.0,6.0,74,0.00,,---,0.01,VWS V14.01,2013-09-07 21:06:00,
2013-09-07 17:11:00,84.2,75.0,29.93,NNE,20,1.0,6.0,74,0.00,,---,0.01,VWS V14.01,2013-09-07 21:11:00,
2013-09-07 17:16:00,83.8,75.4,29.93,NE,51,1.0,6.0,76,0.00,,---,0.01,VWS V14.01,2013-09-07 21:16:00,
2013-09-07 17:21:00,83.6,74.8,29.93,NE,56,2.0,6.0,75,0.00,,---,0.01,VWS V14.01,2013-09-07 21:21:00,
2013-09-07 17:26:00,83.4,75.1,29.93,NE,46,1.0,6.0,76,0.00,,---,0.01,VWS V14.01,2013-09-07 21:26:00,
2013-09-07 17:31:00,83.3,75.3,29.93,NE,51,3.0,4.0,77,0.00,,---,0.01,VWS V14.01,2013-09-07 21:31:00,
2013-09-07 17:37:00,83.4,75.8,29.92,NE,54,1.0,4.0,78,0.00,,---,0.01,VWS V14.01,2013-09-07 21:37:00,
2013-09-07 17:42:00,83.6,75.6,29.93,NE,54,2.0,4.0,77,0.00,,---,0.01,VWS V14.01,2013-09-07 21:42:00,
2013-09-07 17:47:00,84.0,75.6,29.93,ESE,119,0.0,6.0,76,0.00,,---,0.01,VWS V14.01,2013-09-07 21:47:00,
2013-09-07 17:52:00,84.8,76.0,29.93,NE,55,5.0,6.0,75,0.00,,---,0.01,VWS V14.01,2013-09-07 21:52:00,
2013-09-07 17:57:00,84.6,74.2,29.93,NE,47,1.0,7.0,71,0.00,,---,0.01,VWS V14.01,2013-09-07 21:57:00,
2013-09-07 18:02:00,84.4,75.2,29.93,NE,34,3.0,6.0,74,0.00,,---,0.01,VWS V14.01,2013-09-07 22:02:00,
2013-09-07 18:07:00,84.5,75.7,29.93,ESE,103,1.0,6.0,75,0.00,,---,0.01,VWS V14.01,2013-09-07 22:07:00,
2013-09-07 18:12:00,84.3,75.5,29.93,ENE,60,4.0,6.0,75,0.00,,---,0.01,VWS V14.01,2013-09-07 22:12:00,
2013-09-07 18:17:00,83.9,75.5,29.93,NE,55,3.0,6.0,76,0.00,,---,0.01,VWS V14.01,2013-09-07 22:17:00,
2013-09-07 18:22:00,83.4,74.7,29.93,ENE,72,1.0,7.0,75,0.00,,---,0.01,VWS V14.01,2013-09-07 22:22:00,
2013-09-07 18:27:00,83.2,74.8,29.92,ENE,77,1.0,7.0,76,0.00,,---,0.01,VWS V14.01,2013-09-07 22:27:00,
2013-09-07 18:33:00,83.3,75.3,29.92,East,97,0.0,2.0,77,0.00,,---,0.01,VWS V14.01,2013-09-07 22:33:00,
2013-09-07 18:38:00,83.4,74.7,29.92,ENE,68,4.0,4.0,75,0.00,,---,0.01,VWS V14.01,2013-09-07 22:38:00,
2013-09-07 18:43:00,83.3,74.6,29.92,ENE,60,4.0,5.0,75,0.00,,---,0.01,VWS V14.01,2013-09-07 22:43:00,
2013-09-07 18:48:00,83.2,74.5,29.92,NE,41,1.0,5.0,75,0.00,,---,0.01,VWS V14.01,2013-09-07 22:48:00,
2013-09-07 18:53:00,83.0,74.7,29.92,NE,43,1.0,5.0,76,0.00,,---,0.01,VWS V14.01,2013-09-07 22:53:00,
2013-09-07 18:58:00,82.7,74.4,29.92,NE,38,0.0,5.0,76,0.00,,---,0.01,VWS V14.01,2013-09-07 22:58:00,
2013-09-07 19:03:00,82.5,74.6,29.92,NE,43,1.0,2.0,77,0.00,,---,0.01,VWS V14.01,2013-09-07 23:03:00,
2013-09-07 19:08:00,82.2,74.3,29.93,ENE,72,2.0,3.0,77,0.00,,---,0.01,VWS V14.01,2013-09-07 23:08:00,
2013-09-07 19:13:00,82.1,74.2,29.93,NE,54,3.0,4.0,77,0.00,,---,0.01,VWS V14.01,2013-09-07 23:13:00,
2013-09-07 19:18:00,82.1,74.2,29.93,NE,43,3.0,6.0,77,0.00,,---,0.01,VWS V14.01,2013-09-07 23:18:00,
2013-09-07 19:23:00,82.0,73.7,29.93,NE,46,3.0,6.0,76,0.00,,---,0.01,VWS V14.01,2013-09-07 23:23:00,
2013-09-07 19:29:00,81.9,74.0,29.93,NE,37,3.0,6.0,77,0.00,,---,0.01,VWS V14.01,2013-09-07 23:29:00,
2013-09-07 19:34:00,81.8,73.9,29.93,ENE,65,1.0,4.0,77,0.00,,---,0.01,VWS V14.01,2013-09-07 23:34:00,
2013-09-07 19:39:00,81.6,74.1,29.93,ENE,60,1.0,4.0,78,0.00,,---,0.01,VWS V14.01,2013-09-07 23:39:00,
2013-09-07 19:44:00,81.5,74.4,29.94,ENE,63,0.0,4.0,79,0.00,,---,0.01,VWS V14.01,2013-09-07 23:44:00,
2013-09-07 19:49:00,81.5,74.4,29.94,NE,54,0.0,4.0,79,0.00,,---,0.01,VWS V14.01,2013-09-07 23:49:00,
2013-09-07 19:54:00,81.4,74.6,29.93,East,83,4.0,5.0,80,0.00,,---,0.01,VWS V14.01,2013-09-07 23:54:00,
2013-09-07 19:59:00,81.4,74.6,29.94,ENE,58,3.0,5.0,80,0.00,,---,0.01,VWS V14.01,2013-09-07 23:59:00,
2013-09-07 20:04:00,81.3,74.9,29.93,NE,55,0.0,1.0,81,0.00,,---,0.01,VWS V14.01,2013-09-08 00:04:00,
2013-09-07 20:09:00,81.2,74.8,29.94,NE,55,0.0,1.0,81,0.00,,---,0.01,VWS V14.01,2013-09-08 00:09:00,
2013-09-07 20:14:00,81.1,75.1,29.94,NE,52,0.0,3.0,82,0.00,,---,0.01,VWS V14.01,2013-09-08 00:14:00,
2013-09-07 20:19:00,81.0,75.0,29.94,NE,53,0.0,3.0,82,0.00,,---,0.01,VWS V14.01,2013-09-08 00:19:00,
2013-09-07 20:25:00,80.9,74.9,29.94,NE,52,0.0,3.0,82,0.00,,---,0.01,VWS V14.01,2013-09-08 00:25:00,
2013-09-07 20:30:00,80.8,75.2,29.94,NE,51,0.0,3.0,83,0.00,,---,0.01,VWS V14.01,2013-09-08 00:30:00,
2013-09-07 20:35:00,80.8,75.2,29.94,NNE,18,1.0,2.0,83,0.00,,---,0.01,VWS V14.01,2013-09-08 00:35:00,
2013-09-07 20:40:00,81.0,75.3,29.94,NW,326,1.0,2.0,83,0.00,,---,0.01,VWS V14.01,2013-09-08 00:40:00,
2013-09-07 20:45:00,81.0,75.3,29.94,NNW,330,0.0,2.0,83,0.00,,---,0.01,VWS V14.01,2013-09-08 00:45:00,
2013-09-07 20:50:00,81.0,75.0,29.95,NW,325,0.0,2.0,82,0.00,,---,0.01,VWS V14.01,2013-09-08 00:50:00,
2013-09-07 20:55:00,81.0,75.0,29.95,NW,325,0.0,2.0,82,0.00,,---,0.01,VWS V14.01,2013-09-08 00:55:00,
2013-09-07 21:00:00,80.9,74.9,29.95,NW,304,0.0,0.0,82,0.00,,---,0.01,VWS V14.01,2013-09-08 01:00:00,
2013-09-07 21:05:00,80.8,74.8,29.95,WNW,302,0.0,0.0,82,0.00,,---,0.01,VWS V14.01,2013-09-08 01:05:00,
2013-09-07 21:10:00,80.7,74.7,29.96,WNW,302,0.0,1.0,82,0.00,,---,0.01,VWS V14.01,2013-09-08 01:10:00,
2013-09-07 21:15:00,80.4,74.8,29.95,West,267,0.0,1.0,83,0.00,,---,0.01,VWS V14.01,2013-09-08 01:15:00,
2013-09-07 21:21:00,79.9,74.6,29.95,West,259,0.0,1.0,84,0.00,,---,0.01,VWS V14.01,2013-09-08 01:21:00,
2013-09-07 21:26:00,79.5,74.6,29.96,SW,236,0.0,1.0,85,0.00,,---,0.01,VWS V14.01,2013-09-08 01:26:00,
2013-09-07 21:31:00,79.1,74.6,29.95,SW,236,0.0,0.0,86,0.00,,---,0.01,VWS V14.01,2013-09-08 01:31:00,
2013-09-07 21:36:00,78.8,74.3,29.96,WSW,238,0.0,1.0,86,0.00,,---,0.01,VWS V14.01,2013-09-08 01:36:00,
2013-09-07 21:41:00,78.7,74.5,29.96,West,259,0.0,1.0,87,0.00,,---,0.01,VWS V14.01,2013-09-08 01:41:00,
2013-09-07 21:46:00,78.5,74.3,29.96,West,260,0.0,1.0,87,0.00,,---,0.01,VWS V14.01,2013-09-08 01:46:00,
2013-09-07 21:51:00,78.3,74.5,29.96,NW,318,0.0,1.0,88,0.00,,---,0.01,VWS V14.01,2013-09-08 01:51:00,
2013-09-07 21:56:00,78.2,74.4,29.96,WNW,300,0.0,1.0,88,0.00,,---,0.01,VWS V14.01,2013-09-08 01:56:00,
2013-09-07 22:01:00,78.2,74.4,29.96,WNW,297,0.0,0.0,88,0.00,,---,0.01,VWS V14.01,2013-09-08 02:01:00,
2013-09-07 22:06:00,78.2,74.4,29.96,WNW,293,0.0,1.0,88,0.00,,---,0.01,VWS V14.01,2013-09-08 02:06:00,
2013-09-07 22:12:00,78.2,74.4,29.96,NW,304,0.0,1.0,88,0.00,,---,0.01,VWS V14.01,2013-09-08 02:12:00,
2013-09-07 22:17:00,78.1,74.3,29.96,WNW,302,0.0,1.0,88,0.00,,---,0.01,VWS V14.01,2013-09-08 02:17:00,
2013-09-07 22:22:00,77.8,74.0,29.95,WNW,302,0.0,1.0,88,0.00,,---,0.01,VWS V14.01,2013-09-08 02:22:00,
2013-09-07 22:27:00,77.6,74.1,29.95,WNW,302,0.0,1.0,89,0.00,,---,0.01,VWS V14.01,2013-09-08 02:27:00,
2013-09-07 22:32:00,77.3,73.8,29.95,WNW,302,0.0,1.0,89,0.00,,---,0.01,VWS V14.01,2013-09-08 02:32:00,
2013-09-07 22:37:00,77.1,73.9,29.95,WNW,302,0.0,1.0,90,0.00,,---,0.01,VWS V14.01,2013-09-08 02:37:00,
2013-09-07 22:42:00,77.0,73.8,29.95,WNW,302,0.0,1.0,90,0.00,,---,0.01,VWS V14.01,2013-09-08 02:42:00,
2013-09-07 22:47:00,76.9,74.1,29.95,NW,307,0.0,1.0,91,0.00,,---,0.01,VWS V14.01,2013-09-08 02:47:00,
2013-09-07 22:52:00,76.7,73.9,29.95,NW,308,0.0,1.0,91,0.00,,---,0.01,VWS V14.01,2013-09-08 02:52:00,
2013-09-07 22:57:00,76.6,73.8,29.95,WNW,298,0.0,1.0,91,0.00,,---,0.01,VWS V14.01,2013-09-08 02:57:00,
2013-09-07 23:02:00,76.7,73.9,29.95,WNW,290,0.0,1.0,91,0.00,,---,0.01,VWS V14.01,2013-09-08 03:02:00,
2013-09-07 23:08:00,76.6,73.8,29.95,WNW,289,0.0,1.0,91,0.00,,---,0.01,VWS V14.01,2013-09-08 03:08:00,
2013-09-07 23:13:00,76.4,73.9,29.95,WNW,288,0.0,1.0,92,0.00,,---,0.01,VWS V14.01,2013-09-08 03:13:00,
2013-09-07 23:18:00,76.2,73.7,29.95,WNW,289,0.0,1.0,92,0.00,,---,0.01,VWS V14.01,2013-09-08 03:18:00,
2013-09-07 23:23:00,76.1,73.6,29.95,WNW,290,0.0,1.0,92,0.00,,---,0.01,VWS V14.01,2013-09-08 03:23:00,
2013-09-07 23:28:00,76.0,73.5,29.95,WNW,290,0.0,1.0,92,0.00,,---,0.01,VWS V14.01,2013-09-08 03:28:00,
2013-09-07 23:33:00,75.9,73.4,29.95,WNW,289,0.0,0.0,92,0.00,,---,0.01,VWS V14.01,2013-09-08 03:33:00,
2013-09-07 23:38:00,75.9,73.4,29.95,WNW,288,0.0,1.0,92,0.00,,---,0.01,VWS V14.01,2013-09-08 03:38:00,
2013-09-07 23:43:00,75.8,73.3,29.95,WNW,290,0.0,1.0,92,0.00,,---,0.01,VWS V14.01,2013-09-08 03:43:00,
2013-09-07 23:48:00,75.8,73.3,29.95,WNW,291,0.0,1.0,92,0.00,,---,0.01,VWS V14.01,2013-09-08 03:48:00,
2013-09-07 23:53:00,75.7,73.2,29.95,WNW,291,0.0,1.0,92,0.00,,---,0.01,VWS V14.01,2013-09-08 03:53:00,
2013-09-07 23:59:00,75.5,73.0,29.95,WNW,291,0.0,1.0,92,0.00,,---,0.01,VWS V14.01,2013-09-08 03:59:00,